sensor_id;sensor_type;location;lat;lon;timestamp;P1;durP1;ratioP1;P2;durP2;ratioP2
61038;SDS011;46919;45.816;3.104;2022-11-20T00:01:32;4.28;;;1.05;;
61038;SDS011;46919;45.816;3.104;2022-11-20T00:03:58;3.53;;;1.00;;
61038;SDS011;46919;45.816;3.104;2022-11-20T00:06:25;6.72;;;1.27;;
61038;SDS011;46919;45.816;3.104;2022-11-20T00:08:54;5.63;;;1.05;;
61038;SDS011;46919;45.816;3.104;2022-11-20T00:11:22;8.15;;;1.27;;
61038;SDS011;46919;45.816;3.104;2022-11-20T00:13:49;5.45;;;1.00;;
61038;SDS011;46919;45.816;3.104;2022-11-20T00:16:17;3.13;;;0.88;;
61038;SDS011;46919;45.816;3.104;2022-11-20T00:18:44;7.88;;;1.60;;
61038;SDS011;46919;45.816;3.104;2022-11-20T00:21:14;6.20;;;1.30;;
61038;SDS011;46919;45.816;3.104;2022-11-20T00:23:44;4.18;;;1.10;;
61038;SDS011;46919;45.816;3.104;2022-11-20T00:26:11;8.63;;;1.30;;
61038;SDS011;46919;45.816;3.104;2022-11-20T00:28:38;5.50;;;1.38;;
61038;SDS011;46919;45.816;3.104;2022-11-20T00:31:05;4.47;;;1.35;;
61038;SDS011;46919;45.816;3.104;2022-11-20T00:33:33;5.85;;;1.45;;
61038;SDS011;46919;45.816;3.104;2022-11-20T00:36:02;3.65;;;1.27;;
61038;SDS011;46919;45.816;3.104;2022-11-20T00:38:33;7.43;;;2.20;;
61038;SDS011;46919;45.816;3.104;2022-11-20T00:41:00;4.95;;;1.58;;
61038;SDS011;46919;45.816;3.104;2022-11-20T00:43:27;7.03;;;1.70;;
61038;SDS011;46919;45.816;3.104;2022-11-20T00:46:03;10.98;;;1.90;;
61038;SDS011;46919;45.816;3.104;2022-11-20T00:48:30;7.78;;;2.92;;
61038;SDS011;46919;45.816;3.104;2022-11-20T00:50:56;7.10;;;2.15;;
61038;SDS011;46919;45.816;3.104;2022-11-20T00:53:22;8.70;;;2.20;;
61038;SDS011;46919;45.816;3.104;2022-11-20T00:58:20;6.75;;;1.02;;
61038;SDS011;46919;45.816;3.104;2022-11-20T01:00:46;8.45;;;1.40;;
61038;SDS011;46919;45.816;3.104;2022-11-20T01:03:11;6.55;;;1.38;;
61038;SDS011;46919;45.816;3.104;2022-11-20T01:05:37;8.10;;;1.27;;
61038;SDS011;46919;45.816;3.104;2022-11-20T01:08:02;9.38;;;1.02;;
61038;SDS011;46919;45.816;3.104;2022-11-20T01:10:28;6.78;;;1.13;;
61038;SDS011;46919;45.816;3.104;2022-11-20T01:12:53;5.13;;;1.05;;
61038;SDS011;46919;45.816;3.104;2022-11-20T01:15:39;3.47;;;1.10;;
61038;SDS011;46919;45.816;3.104;2022-11-20T01:18:04;6.68;;;1.25;;
61038;SDS011;46919;45.816;3.104;2022-11-20T01:20:33;5.30;;;0.80;;
61038;SDS011;46919;45.816;3.104;2022-11-20T01:23:00;7.35;;;1.05;;
61038;SDS011;46919;45.816;3.104;2022-11-20T01:25:25;5.60;;;0.95;;
61038;SDS011;46919;45.816;3.104;2022-11-20T01:27:51;4.80;;;0.93;;
61038;SDS011;46919;45.816;3.104;2022-11-20T01:30:16;4.72;;;1.10;;
61038;SDS011;46919;45.816;3.104;2022-11-20T01:32:41;6.40;;;1.25;;
61038;SDS011;46919;45.816;3.104;2022-11-20T01:35:07;2.97;;;0.95;;
61038;SDS011;46919;45.816;3.104;2022-11-20T01:37:34;4.32;;;1.00;;
61038;SDS011;46919;45.816;3.104;2022-11-20T01:40:00;5.10;;;0.93;;
61038;SDS011;46919;45.816;3.104;2022-11-20T01:42:25;5.85;;;1.30;;
61038;SDS011;46919;45.816;3.104;2022-11-20T01:48:33;3.88;;;0.90;;
61038;SDS011;46919;45.816;3.104;2022-11-20T01:51:13;4.53;;;1.05;;
61038;SDS011;46919;45.816;3.104;2022-11-20T01:53:44;6.40;;;0.90;;
61038;SDS011;46919;45.816;3.104;2022-11-20T01:56:11;3.40;;;0.75;;
61038;SDS011;46919;45.816;3.104;2022-11-20T01:58:39;4.00;;;0.90;;
61038;SDS011;46919;45.816;3.104;2022-11-20T02:01:12;3.70;;;1.15;;
61038;SDS011;46919;45.816;3.104;2022-11-20T02:03:38;4.55;;;0.95;;
61038;SDS011;46919;45.816;3.104;2022-11-20T02:06:12;4.53;;;1.25;;
61038;SDS011;46919;45.816;3.104;2022-11-20T02:08:44;4.72;;;1.10;;
61038;SDS011;46919;45.816;3.104;2022-11-20T02:11:09;3.85;;;0.98;;
61038;SDS011;46919;45.816;3.104;2022-11-20T02:13:35;7.97;;;1.08;;
61038;SDS011;46919;45.816;3.104;2022-11-20T02:18:47;3.28;;;0.80;;
61038;SDS011;46919;45.816;3.104;2022-11-20T02:21:14;2.50;;;0.80;;
61038;SDS011;46919;45.816;3.104;2022-11-20T02:26:28;5.35;;;1.00;;
61038;SDS011;46919;45.816;3.104;2022-11-20T02:28:56;4.72;;;0.95;;
61038;SDS011;46919;45.816;3.104;2022-11-20T02:31:24;4.45;;;1.10;;
61038;SDS011;46919;45.816;3.104;2022-11-20T02:33:56;4.07;;;1.05;;
61038;SDS011;46919;45.816;3.104;2022-11-20T02:36:23;6.70;;;1.13;;
61038;SDS011;46919;45.816;3.104;2022-11-20T02:38:51;1.83;;;0.88;;
61038;SDS011;46919;45.816;3.104;2022-11-20T02:41:17;3.72;;;1.08;;
61038;SDS011;46919;45.816;3.104;2022-11-20T02:43:42;6.78;;;0.95;;
61038;SDS011;46919;45.816;3.104;2022-11-20T02:46:08;4.75;;;0.80;;
61038;SDS011;46919;45.816;3.104;2022-11-20T02:48:33;5.30;;;0.80;;
61038;SDS011;46919;45.816;3.104;2022-11-20T02:50:59;1.98;;;0.80;;
61038;SDS011;46919;45.816;3.104;2022-11-20T02:53:24;2.95;;;0.80;;
61038;SDS011;46919;45.816;3.104;2022-11-20T02:55:50;3.60;;;0.70;;
61038;SDS011;46919;45.816;3.104;2022-11-20T02:58:15;3.53;;;0.60;;
61038;SDS011;46919;45.816;3.104;2022-11-20T03:00:40;2.67;;;0.70;;
61038;SDS011;46919;45.816;3.104;2022-11-20T03:03:06;5.72;;;1.00;;
61038;SDS011;46919;45.816;3.104;2022-11-20T03:05:31;6.18;;;0.73;;
61038;SDS011;46919;45.816;3.104;2022-11-20T03:07:56;1.70;;;0.75;;
61038;SDS011;46919;45.816;3.104;2022-11-20T03:10:22;3.35;;;0.75;;
61038;SDS011;46919;45.816;3.104;2022-11-20T03:12:47;3.85;;;0.95;;
61038;SDS011;46919;45.816;3.104;2022-11-20T03:15:17;5.00;;;0.90;;
61038;SDS011;46919;45.816;3.104;2022-11-20T03:17:43;4.05;;;1.00;;
61038;SDS011;46919;45.816;3.104;2022-11-20T03:20:08;3.05;;;1.00;;
61038;SDS011;46919;45.816;3.104;2022-11-20T03:22:34;2.00;;;0.77;;
61038;SDS011;46919;45.816;3.104;2022-11-20T03:24:59;2.67;;;0.88;;
61038;SDS011;46919;45.816;3.104;2022-11-20T03:27:25;3.90;;;0.75;;
61038;SDS011;46919;45.816;3.104;2022-11-20T03:29:50;7.63;;;1.10;;
61038;SDS011;46919;45.816;3.104;2022-11-20T03:32:15;5.25;;;0.80;;
61038;SDS011;46919;45.816;3.104;2022-11-20T03:34:41;4.38;;;0.68;;
61038;SDS011;46919;45.816;3.104;2022-11-20T03:37:06;2.45;;;0.80;;
61038;SDS011;46919;45.816;3.104;2022-11-20T03:39:31;4.43;;;1.05;;
61038;SDS011;46919;45.816;3.104;2022-11-20T03:41:57;4.82;;;1.00;;
61038;SDS011;46919;45.816;3.104;2022-11-20T03:44:22;4.22;;;0.98;;
61038;SDS011;46919;45.816;3.104;2022-11-20T03:46:47;3.35;;;1.10;;
61038;SDS011;46919;45.816;3.104;2022-11-20T03:49:13;2.53;;;0.77;;
61038;SDS011;46919;45.816;3.104;2022-11-20T03:51:38;3.78;;;1.55;;
61038;SDS011;46919;45.816;3.104;2022-11-20T03:54:05;2.95;;;0.75;;
61038;SDS011;46919;45.816;3.104;2022-11-20T03:56:33;2.58;;;1.17;;
61038;SDS011;46919;45.816;3.104;2022-11-20T03:59:00;4.30;;;1.10;;
61038;SDS011;46919;45.816;3.104;2022-11-20T04:01:27;4.10;;;1.00;;
61038;SDS011;46919;45.816;3.104;2022-11-20T04:03:55;2.50;;;1.20;;
61038;SDS011;46919;45.816;3.104;2022-11-20T04:06:28;4.70;;;1.10;;
61038;SDS011;46919;45.816;3.104;2022-11-20T04:08:56;1.23;;;0.70;;
61038;SDS011;46919;45.816;3.104;2022-11-20T04:11:29;2.53;;;0.55;;
61038;SDS011;46919;45.816;3.104;2022-11-20T04:13:59;1.92;;;0.68;;
61038;SDS011;46919;45.816;3.104;2022-11-20T04:16:28;4.15;;;0.70;;
61038;SDS011;46919;45.816;3.104;2022-11-20T04:18:56;1.80;;;0.82;;
61038;SDS011;46919;45.816;3.104;2022-11-20T04:21:23;4.18;;;0.60;;
61038;SDS011;46919;45.816;3.104;2022-11-20T04:23:50;2.80;;;0.80;;
61038;SDS011;46919;45.816;3.104;2022-11-20T04:26:16;5.88;;;1.10;;
61038;SDS011;46919;45.816;3.104;2022-11-20T04:28:41;2.53;;;0.73;;
61038;SDS011;46919;45.816;3.104;2022-11-20T04:31:08;3.10;;;0.90;;
61038;SDS011;46919;45.816;3.104;2022-11-20T04:33:35;4.95;;;1.10;;
61038;SDS011;46919;45.816;3.104;2022-11-20T04:36:02;4.68;;;0.93;;
61038;SDS011;46919;45.816;3.104;2022-11-20T04:38:32;2.17;;;0.70;;
61038;SDS011;46919;45.816;3.104;2022-11-20T04:40:58;5.05;;;1.15;;
61038;SDS011;46919;45.816;3.104;2022-11-20T04:43:25;6.43;;;1.10;;
61038;SDS011;46919;45.816;3.104;2022-11-20T04:45:51;5.68;;;1.45;;
61038;SDS011;46919;45.816;3.104;2022-11-20T04:48:17;2.28;;;1.30;;
61038;SDS011;46919;45.816;3.104;2022-11-20T04:50:42;3.90;;;1.42;;
61038;SDS011;46919;45.816;3.104;2022-11-20T04:53:08;6.68;;;1.25;;
61038;SDS011;46919;45.816;3.104;2022-11-20T04:55:33;2.58;;;1.08;;
61038;SDS011;46919;45.816;3.104;2022-11-20T04:57:58;3.35;;;1.08;;
61038;SDS011;46919;45.816;3.104;2022-11-20T05:00:24;3.42;;;0.80;;
61038;SDS011;46919;45.816;3.104;2022-11-20T05:02:49;3.00;;;0.98;;
61038;SDS011;46919;45.816;3.104;2022-11-20T05:05:15;3.72;;;0.95;;
61038;SDS011;46919;45.816;3.104;2022-11-20T05:07:40;3.90;;;0.88;;
61038;SDS011;46919;45.816;3.104;2022-11-20T05:10:05;2.60;;;0.80;;
61038;SDS011;46919;45.816;3.104;2022-11-20T05:12:31;4.75;;;0.77;;
61038;SDS011;46919;45.816;3.104;2022-11-20T05:14:57;4.35;;;0.90;;
61038;SDS011;46919;45.816;3.104;2022-11-20T05:17:22;2.55;;;0.80;;
61038;SDS011;46919;45.816;3.104;2022-11-20T05:19:47;3.13;;;0.95;;
61038;SDS011;46919;45.816;3.104;2022-11-20T05:22:13;4.05;;;0.80;;
61038;SDS011;46919;45.816;3.104;2022-11-20T05:24:38;4.75;;;0.90;;
61038;SDS011;46919;45.816;3.104;2022-11-20T05:27:03;4.22;;;1.00;;
61038;SDS011;46919;45.816;3.104;2022-11-20T05:29:29;4.45;;;0.77;;
61038;SDS011;46919;45.816;3.104;2022-11-20T05:31:54;3.33;;;1.00;;
61038;SDS011;46919;45.816;3.104;2022-11-20T05:34:19;3.08;;;0.90;;
61038;SDS011;46919;45.816;3.104;2022-11-20T05:36:45;3.25;;;0.70;;
61038;SDS011;46919;45.816;3.104;2022-11-20T05:39:10;2.60;;;1.20;;
61038;SDS011;46919;45.816;3.104;2022-11-20T05:41:36;3.65;;;0.85;;
61038;SDS011;46919;45.816;3.104;2022-11-20T05:44:01;3.90;;;1.23;;
61038;SDS011;46919;45.816;3.104;2022-11-20T05:46:26;1.85;;;1.17;;
61038;SDS011;46919;45.816;3.104;2022-11-20T05:48:52;4.20;;;1.23;;
61038;SDS011;46919;45.816;3.104;2022-11-20T05:51:18;4.45;;;1.20;;
61038;SDS011;46919;45.816;3.104;2022-11-20T05:53:44;2.50;;;0.93;;
61038;SDS011;46919;45.816;3.104;2022-11-20T05:56:11;4.18;;;1.17;;
61038;SDS011;46919;45.816;3.104;2022-11-20T05:58:38;2.08;;;0.93;;
61038;SDS011;46919;45.816;3.104;2022-11-20T06:03:40;3.03;;;0.82;;
61038;SDS011;46919;45.816;3.104;2022-11-20T06:06:08;3.72;;;1.10;;
61038;SDS011;46919;45.816;3.104;2022-11-20T06:08:34;4.05;;;1.48;;
61038;SDS011;46919;45.816;3.104;2022-11-20T06:11:03;3.55;;;1.13;;
61038;SDS011;46919;45.816;3.104;2022-11-20T06:13:30;5.05;;;1.05;;
61038;SDS011;46919;45.816;3.104;2022-11-20T06:15:55;5.43;;;1.40;;
61038;SDS011;46919;45.816;3.104;2022-11-20T06:18:21;3.90;;;1.13;;
61038;SDS011;46919;45.816;3.104;2022-11-20T06:20:46;2.53;;;1.13;;
61038;SDS011;46919;45.816;3.104;2022-11-20T06:23:12;2.30;;;1.05;;
61038;SDS011;46919;45.816;3.104;2022-11-20T06:25:41;2.65;;;0.88;;
61038;SDS011;46919;45.816;3.104;2022-11-20T06:28:07;2.88;;;1.25;;
61038;SDS011;46919;45.816;3.104;2022-11-20T06:30:35;4.45;;;1.13;;
61038;SDS011;46919;45.816;3.104;2022-11-20T06:33:00;1.98;;;0.95;;
61038;SDS011;46919;45.816;3.104;2022-11-20T06:35:26;4.78;;;1.10;;
61038;SDS011;46919;45.816;3.104;2022-11-20T06:37:51;3.25;;;1.10;;
61038;SDS011;46919;45.816;3.104;2022-11-20T06:40:17;5.68;;;1.60;;
61038;SDS011;46919;45.816;3.104;2022-11-20T06:42:42;6.70;;;1.40;;
61038;SDS011;46919;45.816;3.104;2022-11-20T06:45:08;3.13;;;1.60;;
61038;SDS011;46919;45.816;3.104;2022-11-20T06:47:34;9.38;;;4.07;;
61038;SDS011;46919;45.816;3.104;2022-11-20T06:49:59;7.97;;;2.90;;
61038;SDS011;46919;45.816;3.104;2022-11-20T06:52:24;10.00;;;5.93;;
61038;SDS011;46919;45.816;3.104;2022-11-20T06:54:50;13.73;;;7.40;;
61038;SDS011;46919;45.816;3.104;2022-11-20T06:57:15;15.55;;;7.82;;
61038;SDS011;46919;45.816;3.104;2022-11-20T06:59:41;8.13;;;4.43;;
61038;SDS011;46919;45.816;3.104;2022-11-20T07:02:09;4.20;;;2.38;;
61038;SDS011;46919;45.816;3.104;2022-11-20T07:04:36;5.35;;;3.35;;
61038;SDS011;46919;45.816;3.104;2022-11-20T07:07:01;4.50;;;2.38;;
61038;SDS011;46919;45.816;3.104;2022-11-20T07:09:26;4.80;;;1.83;;
61038;SDS011;46919;45.816;3.104;2022-11-20T07:11:52;7.10;;;2.20;;
61038;SDS011;46919;45.816;3.104;2022-11-20T07:14:17;5.47;;;2.10;;
61038;SDS011;46919;45.816;3.104;2022-11-20T07:16:42;5.25;;;1.60;;
61038;SDS011;46919;45.816;3.104;2022-11-20T07:19:08;4.57;;;1.80;;
61038;SDS011;46919;45.816;3.104;2022-11-20T07:21:33;5.28;;;1.88;;
61038;SDS011;46919;45.816;3.104;2022-11-20T07:23:59;3.95;;;1.67;;
61038;SDS011;46919;45.816;3.104;2022-11-20T07:26:24;7.50;;;1.88;;
61038;SDS011;46919;45.816;3.104;2022-11-20T07:28:49;3.70;;;2.38;;
61038;SDS011;46919;45.816;3.104;2022-11-20T07:31:15;6.38;;;2.97;;
61038;SDS011;46919;45.816;3.104;2022-11-20T07:33:40;7.13;;;4.13;;
61038;SDS011;46919;45.816;3.104;2022-11-20T07:36:05;6.03;;;4.63;;
61038;SDS011;46919;45.816;3.104;2022-11-20T07:38:31;8.88;;;4.72;;
61038;SDS011;46919;45.816;3.104;2022-11-20T07:40:57;8.73;;;5.10;;
61038;SDS011;46919;45.816;3.104;2022-11-20T07:43:22;10.13;;;5.75;;
61038;SDS011;46919;45.816;3.104;2022-11-20T07:45:49;12.45;;;6.80;;
61038;SDS011;46919;45.816;3.104;2022-11-20T07:48:14;9.82;;;6.03;;
61038;SDS011;46919;45.816;3.104;2022-11-20T07:50:40;11.00;;;6.00;;
61038;SDS011;46919;45.816;3.104;2022-11-20T07:53:05;12.68;;;5.53;;
61038;SDS011;46919;45.816;3.104;2022-11-20T07:55:31;10.73;;;3.83;;
61038;SDS011;46919;45.816;3.104;2022-11-20T07:57:57;5.13;;;3.00;;
61038;SDS011;46919;45.816;3.104;2022-11-20T08:00:23;6.55;;;2.60;;
61038;SDS011;46919;45.816;3.104;2022-11-20T08:02:49;6.00;;;3.55;;
61038;SDS011;46919;45.816;3.104;2022-11-20T08:05:14;11.10;;;6.85;;
61038;SDS011;46919;45.816;3.104;2022-11-20T08:07:40;11.45;;;5.57;;
61038;SDS011;46919;45.816;3.104;2022-11-20T08:10:07;12.32;;;5.53;;
61038;SDS011;46919;45.816;3.104;2022-11-20T08:12:34;10.07;;;4.90;;
61038;SDS011;46919;45.816;3.104;2022-11-20T08:15:18;22.25;;;14.32;;
61038;SDS011;46919;45.816;3.104;2022-11-20T08:17:44;13.70;;;8.32;;
61038;SDS011;46919;45.816;3.104;2022-11-20T08:20:09;6.82;;;3.85;;
61038;SDS011;46919;45.816;3.104;2022-11-20T08:22:35;6.03;;;3.65;;
61038;SDS011;46919;45.816;3.104;2022-11-20T08:25:00;3.85;;;2.47;;
61038;SDS011;46919;45.816;3.104;2022-11-20T08:27:26;7.63;;;3.33;;
61038;SDS011;46919;45.816;3.104;2022-11-20T08:29:52;6.95;;;3.25;;
61038;SDS011;46919;45.816;3.104;2022-11-20T08:32:17;6.03;;;2.20;;
61038;SDS011;46919;45.816;3.104;2022-11-20T08:34:42;4.05;;;2.08;;
61038;SDS011;46919;45.816;3.104;2022-11-20T08:37:08;5.85;;;2.30;;
61038;SDS011;46919;45.816;3.104;2022-11-20T08:39:33;4.10;;;2.08;;
61038;SDS011;46919;45.816;3.104;2022-11-20T08:41:58;3.35;;;2.00;;
61038;SDS011;46919;45.816;3.104;2022-11-20T08:44:24;6.00;;;3.00;;
61038;SDS011;46919;45.816;3.104;2022-11-20T08:46:49;4.85;;;2.10;;
61038;SDS011;46919;45.816;3.104;2022-11-20T08:49:15;11.93;;;2.75;;
61038;SDS011;46919;45.816;3.104;2022-11-20T08:51:41;13.65;;;2.15;;
61038;SDS011;46919;45.816;3.104;2022-11-20T08:54:07;5.10;;;1.50;;
61038;SDS011;46919;45.816;3.104;2022-11-20T08:56:33;4.40;;;1.55;;
61038;SDS011;46919;45.816;3.104;2022-11-20T08:58:59;4.43;;;1.83;;
61038;SDS011;46919;45.816;3.104;2022-11-20T09:01:25;2.30;;;1.65;;
61038;SDS011;46919;45.816;3.104;2022-11-20T09:03:51;4.93;;;1.90;;
61038;SDS011;46919;45.816;3.104;2022-11-20T09:06:17;3.30;;;1.90;;
61038;SDS011;46919;45.816;3.104;2022-11-20T09:08:43;2.90;;;1.92;;
61038;SDS011;46919;45.816;3.104;2022-11-20T09:11:08;4.68;;;1.98;;
61038;SDS011;46919;45.816;3.104;2022-11-20T09:13:35;4.88;;;2.25;;
61038;SDS011;46919;45.816;3.104;2022-11-20T09:16:02;3.95;;;1.80;;
61038;SDS011;46919;45.816;3.104;2022-11-20T09:18:29;3.15;;;1.50;;
61038;SDS011;46919;45.816;3.104;2022-11-20T09:21:00;2.33;;;1.55;;
61038;SDS011;46919;45.816;3.104;2022-11-20T09:23:27;3.72;;;2.25;;
61038;SDS011;46919;45.816;3.104;2022-11-20T09:25:55;4.60;;;1.90;;
61038;SDS011;46919;45.816;3.104;2022-11-20T09:28:24;2.15;;;1.67;;
61038;SDS011;46919;45.816;3.104;2022-11-20T09:30:50;4.07;;;1.60;;
61038;SDS011;46919;45.816;3.104;2022-11-20T09:33:16;5.82;;;1.90;;
61038;SDS011;46919;45.816;3.104;2022-11-20T09:35:42;4.50;;;1.40;;
61038;SDS011;46919;45.816;3.104;2022-11-20T09:38:08;4.38;;;2.20;;
61038;SDS011;46919;45.816;3.104;2022-11-20T09:40:36;2.92;;;1.50;;
61038;SDS011;46919;45.816;3.104;2022-11-20T09:46:05;7.90;;;1.10;;
61038;SDS011;46919;45.816;3.104;2022-11-20T09:54:16;3.33;;;1.75;;
61038;SDS011;46919;45.816;3.104;2022-11-20T09:56:44;4.50;;;2.10;;
61038;SDS011;46919;45.816;3.104;2022-11-20T09:59:20;2.55;;;1.35;;
61038;SDS011;46919;45.816;3.104;2022-11-20T10:01:54;3.08;;;1.60;;
61038;SDS011;46919;45.816;3.104;2022-11-20T10:04:22;4.53;;;1.85;;
61038;SDS011;46919;45.816;3.104;2022-11-20T10:06:53;5.75;;;1.38;;
61038;SDS011;46919;45.816;3.104;2022-11-20T10:09:37;5.05;;;1.30;;
61038;SDS011;46919;45.816;3.104;2022-11-20T10:25:19;3.47;;;1.08;;
61038;SDS011;46919;45.816;3.104;2022-11-20T10:30:12;2.80;;;1.08;;
61038;SDS011;46919;45.816;3.104;2022-11-20T10:32:42;2.13;;;0.90;;
61038;SDS011;46919;45.816;3.104;2022-11-20T10:35:17;4.40;;;1.20;;
61038;SDS011;46919;45.816;3.104;2022-11-20T10:37:44;2.42;;;1.23;;
61038;SDS011;46919;45.816;3.104;2022-11-20T10:40:28;3.08;;;1.33;;
61038;SDS011;46919;45.816;3.104;2022-11-20T10:42:56;5.07;;;1.50;;
61038;SDS011;46919;45.816;3.104;2022-11-20T10:45:39;6.00;;;1.67;;
61038;SDS011;46919;45.816;3.104;2022-11-20T10:48:26;2.88;;;1.20;;
61038;SDS011;46919;45.816;3.104;2022-11-20T10:56:05;2.65;;;1.20;;
61038;SDS011;46919;45.816;3.104;2022-11-20T10:59:00;3.83;;;1.20;;
61038;SDS011;46919;45.816;3.104;2022-11-20T11:01:39;3.55;;;1.52;;
61038;SDS011;46919;45.816;3.104;2022-11-20T11:04:12;2.92;;;1.30;;
61038;SDS011;46919;45.816;3.104;2022-11-20T11:07:04;2.58;;;1.02;;
61038;SDS011;46919;45.816;3.104;2022-11-20T11:09:37;4.20;;;1.73;;
61038;SDS011;46919;45.816;3.104;2022-11-20T11:12:07;4.20;;;1.30;;
61038;SDS011;46919;45.816;3.104;2022-11-20T11:17:26;3.53;;;1.40;;
61038;SDS011;46919;45.816;3.104;2022-11-20T11:22:43;2.40;;;1.27;;
61038;SDS011;46919;45.816;3.104;2022-11-20T11:28:19;2.85;;;1.27;;
61038;SDS011;46919;45.816;3.104;2022-11-20T11:30:51;3.33;;;1.38;;
61038;SDS011;46919;45.816;3.104;2022-11-20T11:33:24;4.15;;;1.42;;
61038;SDS011;46919;45.816;3.104;2022-11-20T11:35:55;5.53;;;1.45;;
61038;SDS011;46919;45.816;3.104;2022-11-20T11:38:44;4.10;;;1.38;;
61038;SDS011;46919;45.816;3.104;2022-11-20T11:41:11;4.13;;;1.60;;
61038;SDS011;46919;45.816;3.104;2022-11-20T11:43:48;3.50;;;1.30;;
61038;SDS011;46919;45.816;3.104;2022-11-20T11:46:35;3.15;;;1.42;;
61038;SDS011;46919;45.816;3.104;2022-11-20T11:51:34;3.40;;;1.30;;
61038;SDS011;46919;45.816;3.104;2022-11-20T11:54:02;2.25;;;1.42;;
61038;SDS011;46919;45.816;3.104;2022-11-20T11:56:37;4.68;;;1.60;;
61038;SDS011;46919;45.816;3.104;2022-11-20T11:59:04;5.28;;;1.50;;
61038;SDS011;46919;45.816;3.104;2022-11-20T12:01:44;5.43;;;1.85;;
61038;SDS011;46919;45.816;3.104;2022-11-20T12:04:27;9.18;;;7.70;;
61038;SDS011;46919;45.816;3.104;2022-11-20T12:07:15;3.97;;;1.73;;
61038;SDS011;46919;45.816;3.104;2022-11-20T12:09:53;3.80;;;1.80;;
61038;SDS011;46919;45.816;3.104;2022-11-20T12:12:23;4.57;;;1.67;;
61038;SDS011;46919;45.816;3.104;2022-11-20T12:14:53;2.95;;;1.70;;
61038;SDS011;46919;45.816;3.104;2022-11-20T12:17:20;5.20;;;2.28;;
61038;SDS011;46919;45.816;3.104;2022-11-20T12:19:45;4.90;;;1.80;;
61038;SDS011;46919;45.816;3.104;2022-11-20T12:30:18;5.55;;;1.92;;
61038;SDS011;46919;45.816;3.104;2022-11-20T12:43:25;5.35;;;1.98;;
61038;SDS011;46919;45.816;3.104;2022-11-20T12:46:18;3.50;;;1.70;;
61038;SDS011;46919;45.816;3.104;2022-11-20T12:55:01;3.40;;;1.85;;
61038;SDS011;46919;45.816;3.104;2022-11-20T12:57:50;5.45;;;2.17;;
61038;SDS011;46919;45.816;3.104;2022-11-20T13:00:19;4.05;;;1.90;;
61038;SDS011;46919;45.816;3.104;2022-11-20T13:08:03;5.22;;;1.73;;
61038;SDS011;46919;45.816;3.104;2022-11-20T13:10:45;3.95;;;1.50;;
61038;SDS011;46919;45.816;3.104;2022-11-20T13:18:19;3.63;;;1.17;;
61038;SDS011;46919;45.816;3.104;2022-11-20T13:20:45;3.95;;;1.70;;
61038;SDS011;46919;45.816;3.104;2022-11-20T13:23:22;0.68;;;0.43;;
61038;SDS011;46919;45.816;3.104;2022-11-20T13:25:49;1.05;;;0.47;;
61038;SDS011;46919;45.816;3.104;2022-11-20T13:30:50;1.08;;;0.30;;
61038;SDS011;46919;45.816;3.104;2022-11-20T13:33:25;0.93;;;0.65;;
61038;SDS011;46919;45.816;3.104;2022-11-20T13:36:28;2.95;;;2.03;;
61038;SDS011;46919;45.816;3.104;2022-11-20T13:38:48;2.50;;;1.63;;
61038;SDS011;46919;45.816;3.104;2022-11-20T13:41:28;5.43;;;2.10;;
61038;SDS011;46919;45.816;3.104;2022-11-20T13:44:25;7.03;;;2.70;;
61038;SDS011;46919;45.816;3.104;2022-11-20T13:47:16;6.07;;;2.88;;
61038;SDS011;46919;45.816;3.104;2022-11-20T13:49:47;5.75;;;2.47;;
61038;SDS011;46919;45.816;3.104;2022-11-20T13:57:54;4.18;;;1.88;;
61038;SDS011;46919;45.816;3.104;2022-11-20T14:00:28;4.00;;;1.23;;
61038;SDS011;46919;45.816;3.104;2022-11-20T14:05:31;4.10;;;1.67;;
61038;SDS011;46919;45.816;3.104;2022-11-20T14:08:05;3.78;;;1.73;;
61038;SDS011;46919;45.816;3.104;2022-11-20T14:13:37;3.17;;;1.38;;
61038;SDS011;46919;45.816;3.104;2022-11-20T14:15:58;3.85;;;1.38;;
61038;SDS011;46919;45.816;3.104;2022-11-20T14:18:25;2.95;;;1.40;;
61038;SDS011;46919;45.816;3.104;2022-11-20T14:20:52;2.08;;;1.20;;
61038;SDS011;46919;45.816;3.104;2022-11-20T14:23:24;4.75;;;1.60;;
61038;SDS011;46919;45.816;3.104;2022-11-20T14:25:54;16.70;;;8.55;;
61038;SDS011;46919;45.816;3.104;2022-11-20T14:28:27;5.45;;;2.83;;
61038;SDS011;46919;45.816;3.104;2022-11-20T14:30:54;4.28;;;1.40;;
61038;SDS011;46919;45.816;3.104;2022-11-20T14:33:21;2.85;;;1.30;;
61038;SDS011;46919;45.816;3.104;2022-11-20T14:35:53;3.60;;;1.30;;
61038;SDS011;46919;45.816;3.104;2022-11-20T14:38:29;4.07;;;1.20;;
61038;SDS011;46919;45.816;3.104;2022-11-20T14:41:16;5.43;;;2.00;;
61038;SDS011;46919;45.816;3.104;2022-11-20T14:43:45;4.40;;;1.88;;
61038;SDS011;46919;45.816;3.104;2022-11-20T14:46:11;4.68;;;1.88;;
61038;SDS011;46919;45.816;3.104;2022-11-20T14:51:38;1.20;;;0.70;;
61038;SDS011;46919;45.816;3.104;2022-11-20T14:54:14;1.10;;;0.55;;
61038;SDS011;46919;45.816;3.104;2022-11-20T14:56:41;3.10;;;1.00;;
61038;SDS011;46919;45.816;3.104;2022-11-20T14:59:07;1.10;;;0.60;;
61038;SDS011;46919;45.816;3.104;2022-11-20T15:01:34;2.75;;;0.60;;
61038;SDS011;46919;45.816;3.104;2022-11-20T15:04:09;0.60;;;0.20;;
61038;SDS011;46919;45.816;3.104;2022-11-20T15:06:36;1.52;;;0.30;;
61038;SDS011;46919;45.816;3.104;2022-11-20T15:09:04;1.80;;;0.35;;
61038;SDS011;46919;45.816;3.104;2022-11-20T15:11:33;1.10;;;0.35;;
61038;SDS011;46919;45.816;3.104;2022-11-20T15:14:04;1.63;;;0.40;;
61038;SDS011;46919;45.816;3.104;2022-11-20T15:16:31;0.85;;;0.30;;
61038;SDS011;46919;45.816;3.104;2022-11-20T15:18:57;0.75;;;0.30;;
61038;SDS011;46919;45.816;3.104;2022-11-20T15:21:23;2.08;;;0.98;;
61038;SDS011;46919;45.816;3.104;2022-11-20T15:23:49;1.52;;;0.30;;
61038;SDS011;46919;45.816;3.104;2022-11-20T15:26:18;1.27;;;0.80;;
61038;SDS011;46919;45.816;3.104;2022-11-20T15:28:51;0.47;;;0.22;;
61038;SDS011;46919;45.816;3.104;2022-11-20T15:31:18;1.42;;;0.35;;
61038;SDS011;46919;45.816;3.104;2022-11-20T15:33:45;1.25;;;0.40;;
61038;SDS011;46919;45.816;3.104;2022-11-20T15:36:11;1.58;;;0.32;;
61038;SDS011;46919;45.816;3.104;2022-11-20T15:38:37;2.05;;;0.70;;
61038;SDS011;46919;45.816;3.104;2022-11-20T15:41:02;0.55;;;0.30;;
61038;SDS011;46919;45.816;3.104;2022-11-20T15:43:28;1.27;;;0.47;;
61038;SDS011;46919;45.816;3.104;2022-11-20T15:45:55;3.05;;;0.90;;
61038;SDS011;46919;45.816;3.104;2022-11-20T15:50:58;2.17;;;0.80;;
61038;SDS011;46919;45.816;3.104;2022-11-20T15:53:26;3.60;;;0.70;;
61038;SDS011;46919;45.816;3.104;2022-11-20T15:55:52;1.75;;;0.40;;
61038;SDS011;46919;45.816;3.104;2022-11-20T15:58:17;2.30;;;1.15;;
61038;SDS011;46919;45.816;3.104;2022-11-20T16:00:43;3.45;;;1.40;;
61038;SDS011;46919;45.816;3.104;2022-11-20T16:03:10;2.00;;;0.70;;
61038;SDS011;46919;45.816;3.104;2022-11-20T16:05:36;3.85;;;2.38;;
61038;SDS011;46919;45.816;3.104;2022-11-20T16:08:02;0.93;;;0.38;;
61038;SDS011;46919;45.816;3.104;2022-11-20T16:10:27;1.17;;;0.40;;
61038;SDS011;46919;45.816;3.104;2022-11-20T16:12:52;1.10;;;0.30;;
61038;SDS011;46919;45.816;3.104;2022-11-20T16:15:36;3.05;;;1.75;;
61038;SDS011;46919;45.816;3.104;2022-11-20T16:18:12;3.30;;;0.80;;
61038;SDS011;46919;45.816;3.104;2022-11-20T16:20:46;2.63;;;0.75;;
61038;SDS011;46919;45.816;3.104;2022-11-20T16:23:14;1.45;;;0.40;;
61038;SDS011;46919;45.816;3.104;2022-11-20T16:25:40;3.50;;;0.50;;
61038;SDS011;46919;45.816;3.104;2022-11-20T16:28:07;2.33;;;0.30;;
61038;SDS011;46919;45.816;3.104;2022-11-20T16:30:33;0.55;;;0.30;;
61038;SDS011;46919;45.816;3.104;2022-11-20T16:32:59;0.50;;;0.30;;
61038;SDS011;46919;45.816;3.104;2022-11-20T16:35:26;3.15;;;0.68;;
61038;SDS011;46919;45.816;3.104;2022-11-20T16:37:53;2.88;;;1.63;;
61038;SDS011;46919;45.816;3.104;2022-11-20T16:40:18;1.55;;;0.35;;
61038;SDS011;46919;45.816;3.104;2022-11-20T16:42:44;1.63;;;0.50;;
61038;SDS011;46919;45.816;3.104;2022-11-20T16:45:09;1.77;;;0.60;;